createdAt,value
2022-08-07T00:01:12.573Z,18.20
2022-08-07T00:03:53.228Z,18.20
2022-08-07T00:06:33.281Z,18.20
2022-08-07T00:09:16.852Z,18.20
2022-08-07T00:11:53.939Z,18.20
2022-08-07T00:14:25.346Z,18.10
2022-08-07T00:16:52.768Z,18.10
2022-08-07T00:19:21.510Z,18.10
2022-08-07T00:21:55.970Z,18.10
2022-08-07T00:24:24.632Z,18.10
2022-08-07T00:27:06.473Z,18.00
2022-08-07T00:29:36.916Z,18.10
2022-08-07T00:32:05.985Z,18.00
2022-08-07T00:34:35.384Z,18.10
2022-08-07T00:37:02.915Z,18.10
2022-08-07T00:39:33.116Z,18.00
2022-08-07T00:42:04.927Z,18.00
2022-08-07T00:44:33.630Z,18.00
2022-08-07T00:47:06.460Z,17.90
2022-08-07T00:50:20.391Z,17.90
2022-08-07T00:52:30.028Z,17.80
2022-08-07T00:55:04.745Z,17.80
2022-08-07T00:57:37.907Z,17.80
2022-08-07T01:00:11.895Z,17.80
2022-08-07T01:02:39.717Z,17.80
2022-08-07T01:05:19.326Z,17.80
2022-08-07T01:07:47.041Z,17.80
2022-08-07T01:10:17.153Z,17.80
2022-08-07T01:12:54.129Z,17.80
2022-08-07T01:15:36.088Z,17.70
2022-08-07T01:18:10.701Z,17.80
2022-08-07T01:21:07.413Z,17.80
2022-08-07T01:23:49.741Z,17.80
2022-08-07T01:26:19.517Z,17.80
2022-08-07T01:28:49.373Z,17.80
2022-08-07T01:31:17.904Z,17.80
2022-08-07T01:33:56.264Z,17.70
2022-08-07T01:36:33.394Z,17.60
2022-08-07T01:39:01.391Z,17.60
2022-08-07T01:41:32.611Z,17.60
2022-08-07T01:43:59.697Z,17.60
2022-08-07T01:46:28.699Z,17.60
2022-08-07T01:48:59.869Z,17.60
2022-08-07T01:52:01.898Z,17.60
2022-08-07T01:54:32.705Z,17.60
2022-08-07T01:57:24.280Z,17.60
2022-08-07T02:00:00.545Z,17.70
2022-08-07T02:03:18.206Z,17.60
2022-08-07T02:05:48.535Z,17.60
2022-08-07T02:08:29.336Z,17.50
2022-08-07T02:10:59.541Z,17.50
2022-08-07T02:13:58.168Z,17.40
2022-08-07T02:16:19.886Z,17.40
2022-08-07T02:18:56.613Z,17.40
2022-08-07T02:21:25.896Z,17.40
2022-08-07T02:23:53.263Z,17.40
2022-08-07T02:26:32.366Z,17.50
2022-08-07T02:29:05.137Z,17.40
2022-08-07T02:31:40.990Z,17.40
2022-08-07T02:34:11.645Z,17.40
2022-08-07T02:36:46.061Z,17.40
2022-08-07T02:39:17.483Z,17.40
2022-08-07T02:42:03.296Z,17.30
2022-08-07T02:44:42.271Z,17.30
2022-08-07T02:47:19.519Z,17.30
2022-08-07T02:49:58.543Z,17.30
2022-08-07T02:52:32.380Z,17.30
2022-08-07T02:55:03.934Z,17.30
2022-08-07T02:57:34.945Z,17.30
2022-08-07T03:00:11.261Z,17.30
2022-08-07T03:02:51.978Z,17.30
2022-08-07T03:05:24.612Z,17.30
2022-08-07T03:08:07.972Z,17.20
2022-08-07T03:10:40.872Z,17.20
2022-08-07T03:13:15.486Z,17.10
2022-08-07T03:15:56.526Z,17.20
2022-08-07T03:18:35.027Z,17.20
2022-08-07T03:21:05.111Z,17.10
2022-08-07T03:24:19.501Z,17.10
2022-08-07T03:26:27.901Z,17.10
2022-08-07T03:28:56.949Z,17.10
2022-08-07T03:31:42.595Z,17.10
2022-08-07T03:34:18.327Z,17.10
2022-08-07T03:36:51.696Z,17.00
2022-08-07T03:39:58.941Z,17.00
2022-08-07T03:42:08.442Z,17.00
2022-08-07T03:44:37.676Z,17.00
2022-08-07T03:47:13.638Z,17.00
2022-08-07T03:49:48.041Z,17.00
2022-08-07T03:52:26.515Z,17.00
2022-08-07T03:55:06.120Z,16.90
2022-08-07T03:58:33.429Z,16.90
2022-08-07T04:00:30.228Z,16.90
2022-08-07T04:03:04.029Z,16.90
2022-08-07T04:05:39.474Z,16.80
2022-08-07T04:08:11.946Z,16.80
2022-08-07T04:10:42.623Z,16.90
2022-08-07T04:13:27.627Z,16.80
2022-08-07T04:15:55.136Z,16.90
2022-08-07T04:18:57.491Z,16.90
2022-08-07T04:21:09.208Z,16.90
2022-08-07T04:23:43.931Z,16.90
2022-08-07T04:26:28.432Z,16.80
2022-08-07T04:28:55.913Z,16.80
2022-08-07T04:31:39.274Z,16.80
2022-08-07T04:34:16.711Z,16.80
2022-08-07T04:36:45.377Z,16.80
2022-08-07T04:39:16.011Z,16.70
2022-08-07T04:41:50.335Z,16.70
2022-08-07T04:44:19.040Z,16.70
2022-08-07T04:47:04.630Z,16.80
2022-08-07T04:49:58.135Z,16.70
2022-08-07T04:52:37.547Z,16.70
2022-08-07T04:58:11.028Z,16.80
2022-08-07T04:58:35.001Z,16.80
2022-08-07T05:01:30.231Z,16.90
2022-08-07T05:04:17.084Z,17.10
2022-08-07T05:07:19.722Z,17.30
2022-08-07T05:10:06.189Z,17.40
2022-08-07T05:12:53.045Z,17.50
2022-08-07T05:15:27.674Z,17.50
2022-08-07T05:18:00.510Z,17.60
2022-08-07T05:20:34.896Z,17.60
2022-08-07T05:23:16.187Z,17.60
2022-08-07T05:26:13.625Z,17.60
2022-08-07T05:28:34.853Z,17.70
2022-08-07T05:31:03.634Z,17.70
2022-08-07T05:33:35.560Z,17.70
2022-08-07T05:36:07.054Z,17.70
2022-08-07T05:39:00.168Z,17.70
2022-08-07T05:42:02.211Z,17.70
2022-08-07T05:44:29.199Z,17.70
2022-08-07T05:46:57.507Z,17.80
2022-08-07T05:49:27.756Z,17.80
2022-08-07T05:52:08.482Z,17.80
2022-08-07T05:54:53.606Z,17.80
2022-08-07T05:57:26.729Z,17.90
2022-08-07T05:59:59.411Z,17.90
2022-08-07T06:02:30.641Z,17.90
2022-08-07T06:05:03.419Z,18.00
2022-08-07T06:08:05.448Z,18.00
2022-08-07T06:10:20.304Z,18.00
2022-08-07T06:12:47.945Z,18.00
2022-08-07T06:15:16.403Z,18.10
2022-08-07T06:17:53.870Z,18.10
2022-08-07T06:20:49.391Z,18.10
2022-08-07T06:23:45.921Z,18.20
2022-08-07T06:26:00.260Z,18.20
2022-08-07T06:28:28.552Z,18.20
2022-08-07T06:30:58.175Z,18.20
2022-08-07T06:33:26.456Z,18.20
2022-08-07T06:36:12.857Z,18.20
2022-08-07T06:38:59.662Z,18.30
2022-08-07T06:42:01.784Z,18.30
2022-08-07T06:44:34.122Z,18.30
2022-08-07T06:47:12.285Z,18.20
2022-08-07T06:49:50.831Z,18.10
2022-08-07T06:52:31.957Z,18.30
2022-08-07T06:55:48.068Z,18.40
2022-08-07T06:58:21.450Z,18.60
2022-08-07T07:00:52.708Z,18.70
2022-08-07T07:03:39.802Z,18.60
2022-08-07T07:06:11.104Z,18.60
2022-08-07T07:08:39.971Z,18.50
2022-08-07T07:12:07.589Z,18.70
2022-08-07T07:14:02.824Z,18.70
2022-08-07T07:16:39.004Z,18.60
2022-08-07T07:19:57.481Z,18.70
2022-08-07T07:22:33.713Z,18.70
2022-08-07T07:25:02.956Z,18.50
2022-08-07T07:27:56.368Z,18.30
2022-08-07T07:30:39.825Z,18.30
2022-08-07T07:33:11.832Z,18.30
2022-08-07T07:36:03.917Z,18.20
2022-08-07T07:38:34.873Z,18.20
2022-08-07T07:41:08.744Z,18.30
2022-08-07T07:44:13.693Z,18.40
2022-08-07T07:46:36.664Z,18.40
2022-08-07T07:50:36.409Z,18.50
2022-08-07T07:52:09.167Z,18.50
2022-08-07T07:54:37.608Z,18.70
2022-08-07T07:57:09.021Z,18.60
2022-08-07T07:59:52.210Z,18.70
2022-08-07T08:02:22.534Z,18.70
2022-08-07T08:05:05.314Z,18.90
2022-08-07T08:07:42.373Z,19.10
2022-08-07T08:10:35.605Z,19.00
2022-08-07T08:13:10.398Z,19.30
2022-08-07T08:15:57.615Z,19.20
2022-08-07T08:18:28.439Z,19.10
2022-08-07T08:20:55.915Z,19.20
2022-08-07T08:23:43.572Z,19.20
2022-08-07T08:26:34.756Z,19.30
2022-08-07T08:29:04.000Z,19.40
2022-08-07T08:32:17.199Z,19.40
2022-08-07T08:34:26.720Z,19.30
2022-08-07T08:36:58.065Z,19.30
2022-08-07T08:39:39.329Z,19.40
2022-08-07T08:42:36.169Z,19.50
2022-08-07T08:45:42.001Z,19.50
2022-08-07T08:48:42.217Z,19.20
2022-08-07T08:51:22.456Z,19.30
2022-08-07T08:54:06.481Z,19.40
2022-08-07T08:56:39.148Z,19.50
2022-08-07T08:59:26.816Z,19.70
2022-08-07T09:02:04.430Z,19.70
2022-08-07T09:04:54.055Z,19.60
2022-08-07T09:07:46.149Z,19.70
2022-08-07T09:10:29.511Z,19.80
2022-08-07T09:13:36.906Z,19.80
2022-08-07T09:16:29.925Z,19.90
2022-08-07T09:19:52.250Z,19.70
2022-08-07T09:24:30.792Z,19.80
2022-08-07T09:25:53.469Z,20.00
2022-08-07T09:30:04.215Z,20.30
2022-08-07T09:31:48.415Z,20.40
2022-08-07T09:34:26.192Z,20.40
2022-08-07T09:37:11.609Z,20.30
2022-08-07T09:40:05.946Z,20.40
2022-08-07T09:42:57.123Z,20.70
2022-08-07T09:47:52.606Z,20.90
2022-08-07T09:50:02.605Z,20.90
2022-08-07T09:52:09.661Z,21.00
2022-08-07T09:54:48.217Z,21.10
2022-08-07T09:57:46.359Z,21.20
2022-08-07T10:00:21.642Z,21.30
2022-08-07T10:03:03.821Z,21.40
2022-08-07T10:06:12.072Z,21.60
2022-08-07T10:09:15.220Z,21.60
2022-08-07T10:12:21.748Z,21.50
2022-08-07T10:15:54.626Z,21.30
2022-08-07T10:18:55.896Z,21.20
2022-08-07T10:22:12.609Z,21.20
2022-08-07T10:25:00.709Z,21.60
2022-08-07T10:27:46.785Z,22.20
2022-08-07T10:30:18.897Z,22.70
2022-08-07T10:33:14.859Z,23.00
2022-08-07T10:36:05.629Z,23.10
2022-08-07T10:38:53.094Z,22.90
2022-08-07T10:41:52.247Z,22.70
2022-08-07T10:44:38.331Z,22.50
2022-08-07T10:47:19.203Z,22.50
2022-08-07T10:50:19.029Z,22.80
2022-08-07T10:53:21.624Z,23.00
2022-08-07T10:55:53.758Z,23.10
2022-08-07T10:58:46.043Z,22.80
2022-08-07T11:01:16.018Z,22.90
2022-08-07T11:04:16.674Z,23.00
2022-08-07T11:06:45.006Z,23.50
2022-08-07T11:10:10.665Z,24.20
2022-08-07T11:12:32.273Z,24.80
2022-08-07T11:15:04.381Z,24.90
2022-08-07T11:17:56.681Z,25.20
2022-08-07T11:20:59.046Z,25.40
2022-08-07T11:23:50.877Z,25.70
2022-08-07T11:26:49.889Z,25.20
2022-08-07T11:29:42.924Z,24.60
2022-08-07T11:32:32.122Z,24.40
2022-08-07T11:35:09.382Z,25.20
2022-08-07T11:37:58.046Z,25.70
2022-08-07T11:40:49.731Z,26.20
2022-08-07T11:43:54.943Z,26.10
2022-08-07T11:46:44.812Z,26.70
2022-08-07T11:50:18.696Z,27.50
2022-08-07T11:53:05.068Z,28.00
2022-08-07T11:56:25.029Z,27.50
2022-08-07T11:58:53.453Z,27.30
2022-08-07T12:01:59.998Z,27.70
2022-08-07T12:04:45.928Z,28.20
2022-08-07T12:08:05.366Z,29.10
2022-08-07T12:10:42.417Z,29.30
2022-08-07T12:13:17.049Z,29.80
2022-08-07T12:16:07.025Z,30.20
2022-08-07T12:18:50.709Z,30.20
2022-08-07T12:22:37.338Z,29.60
2022-08-07T12:24:37.961Z,29.40
2022-08-07T12:27:16.884Z,29.20
2022-08-07T12:29:53.418Z,28.40
2022-08-07T12:32:45.131Z,28.40
2022-08-07T12:35:16.110Z,28.40
2022-08-07T12:38:10.016Z,28.20
2022-08-07T12:40:48.581Z,29.00
2022-08-07T12:44:05.091Z,29.70
2022-08-07T12:46:42.828Z,29.90
2022-08-07T12:49:25.770Z,30.20
2022-08-07T12:52:18.102Z,30.90
2022-08-07T12:55:09.649Z,32.10
2022-08-07T12:58:00.490Z,31.60
2022-08-07T13:00:49.584Z,31.70
2022-08-07T13:03:59.276Z,32.00
2022-08-07T13:07:01.933Z,33.00
2022-08-07T13:10:28.391Z,33.10
2022-08-07T13:13:04.879Z,33.40
2022-08-07T13:15:59.779Z,34.10
2022-08-07T13:18:54.612Z,33.80
2022-08-07T13:21:50.331Z,33.30
2022-08-07T13:24:29.476Z,31.50
2022-08-07T13:28:11.723Z,31.70
2022-08-07T13:30:41.288Z,32.30
2022-08-07T13:34:33.278Z,33.70
2022-08-07T13:36:39.681Z,34.50
2022-08-07T13:39:28.416Z,35.40
2022-08-07T13:42:19.203Z,35.70
2022-08-07T13:45:11.498Z,34.60
2022-08-07T13:48:05.414Z,34.60
2022-08-07T13:50:32.911Z,33.90
2022-08-07T13:53:03.677Z,33.10
2022-08-07T13:55:34.134Z,32.90
2022-08-07T13:58:31.847Z,33.20
2022-08-07T14:01:09.023Z,33.80
2022-08-07T14:04:05.160Z,34.60
2022-08-07T14:06:37.039Z,34.80
2022-08-07T14:09:09.836Z,34.60
2022-08-07T14:12:10.555Z,33.70
2022-08-07T14:14:44.980Z,31.80
2022-08-07T14:18:12.612Z,30.30
2022-08-07T14:20:42.516Z,29.90
2022-08-07T14:23:14.722Z,30.00
2022-08-07T14:26:05.278Z,29.90
2022-08-07T14:28:57.651Z,29.70
2022-08-07T14:31:24.894Z,30.30
2022-08-07T14:34:11.884Z,30.50
2022-08-07T14:36:56.202Z,29.60
2022-08-07T14:40:17.031Z,29.40
2022-08-07T14:45:21.977Z,30.40
2022-08-07T14:47:58.740Z,29.40
2022-08-07T14:53:16.552Z,30.00
2022-08-07T14:56:05.887Z,30.60
2022-08-07T14:58:38.405Z,30.30
2022-08-07T15:01:22.775Z,30.30
2022-08-07T15:03:53.328Z,30.70
2022-08-07T15:06:26.137Z,31.20
2022-08-07T15:08:54.877Z,32.30
2022-08-07T15:11:54.195Z,33.30
2022-08-07T15:14:20.751Z,34.40
2022-08-07T15:17:01.351Z,35.30
2022-08-07T15:20:16.164Z,35.40
2022-08-07T15:25:24.179Z,37.00
2022-08-07T15:31:04.739Z,37.50
2022-08-07T15:33:36.309Z,37.70
2022-08-07T15:36:07.879Z,38.50
2022-08-07T15:38:51.324Z,38.90
2022-08-07T15:42:44.389Z,36.80
2022-08-07T15:44:21.285Z,37.60
2022-08-07T15:47:09.056Z,37.50
2022-08-07T15:52:38.067Z,37.20
2022-08-07T15:55:11.474Z,37.60
2022-08-07T15:57:49.012Z,38.00
2022-08-07T16:00:31.620Z,36.90
2022-08-07T16:03:20.584Z,36.70
2022-08-07T16:05:51.807Z,36.30
2022-08-07T16:08:33.520Z,35.70
2022-08-07T16:11:17.443Z,36.20
2022-08-07T16:14:12.532Z,36.70
2022-08-07T16:16:56.821Z,37.30
2022-08-07T16:19:58.485Z,37.70
2022-08-07T16:22:38.861Z,38.40
2022-08-07T16:25:55.424Z,38.90
2022-08-07T16:30:07.194Z,37.40
2022-08-07T16:31:50.796Z,37.50
2022-08-07T16:34:48.571Z,37.50
2022-08-07T16:38:03.681Z,37.60
2022-08-07T16:40:28.090Z,37.60
2022-08-07T16:42:57.453Z,37.50
2022-08-07T16:46:47.405Z,36.50
2022-08-07T16:49:04.351Z,35.30
2022-08-07T16:52:52.139Z,34.00
2022-08-07T16:55:47.355Z,32.70
2022-08-07T16:58:30.236Z,31.70
2022-08-07T17:01:23.021Z,31.20
2022-08-07T17:04:29.578Z,31.30
2022-08-07T17:07:13.534Z,31.80
2022-08-07T17:10:06.884Z,32.40
2022-08-07T17:12:45.178Z,32.80
2022-08-07T17:15:15.954Z,32.80
2022-08-07T17:17:47.984Z,32.20
2022-08-07T17:20:30.912Z,31.20
2022-08-07T17:23:20.355Z,30.30
2022-08-07T17:26:29.981Z,29.90
2022-08-07T17:29:04.527Z,30.10
2022-08-07T17:31:44.454Z,29.90
2022-08-07T17:35:41.439Z,29.50
2022-08-07T17:38:06.544Z,29.10
2022-08-07T17:41:12.307Z,28.60
2022-08-07T17:44:33.260Z,27.70
2022-08-07T17:47:16.824Z,27.20
2022-08-07T17:49:59.462Z,26.50
2022-08-07T17:52:51.572Z,25.90
2022-08-07T17:56:00.503Z,25.40
2022-08-07T17:58:46.366Z,25.10
2022-08-07T18:01:24.942Z,24.80
2022-08-07T18:04:42.247Z,24.60
2022-08-07T18:07:20.200Z,24.50
2022-08-07T18:10:07.238Z,24.30
2022-08-07T18:12:55.015Z,24.10
2022-08-07T18:15:42.601Z,23.80
2022-08-07T18:18:47.544Z,23.40
2022-08-07T18:21:53.378Z,23.10
2022-08-07T18:24:33.010Z,22.70
2022-08-07T18:27:17.192Z,22.60
2022-08-07T18:30:06.794Z,22.30
2022-08-07T18:32:46.210Z,22.40
2022-08-07T18:35:55.784Z,22.40
2022-08-07T18:40:05.321Z,22.40
2022-08-07T18:42:11.947Z,22.40
2022-08-07T18:45:45.032Z,22.30
2022-08-07T18:47:44.898Z,22.10
2022-08-07T18:50:39.572Z,22.00
2022-08-07T18:53:16.343Z,21.80
2022-08-07T18:56:12.711Z,21.60
2022-08-07T18:59:04.357Z,21.40
2022-08-07T19:02:17.962Z,21.20
2022-08-07T19:05:15.621Z,21.00
2022-08-07T19:08:22.076Z,20.90
2022-08-07T19:10:55.446Z,20.80
2022-08-07T19:13:28.459Z,20.90
2022-08-07T19:17:01.494Z,20.90
2022-08-07T19:19:31.583Z,21.00
2022-08-07T19:22:11.402Z,21.10
2022-08-07T19:24:53.027Z,21.30
2022-08-07T19:28:56.697Z,21.50
2022-08-07T19:31:05.816Z,21.30
2022-08-07T19:33:10.098Z,21.30
2022-08-07T19:35:42.244Z,21.20
2022-08-07T19:38:16.858Z,21.10
2022-08-07T19:40:49.309Z,21.10
2022-08-07T19:43:43.548Z,21.00
2022-08-07T19:46:11.940Z,20.80
2022-08-07T19:48:43.982Z,20.70
2022-08-07T19:51:19.164Z,20.60
2022-08-07T19:54:33.747Z,20.70
2022-08-07T19:58:02.493Z,20.70
2022-08-07T19:59:40.672Z,20.70
2022-08-07T20:02:19.116Z,20.70
2022-08-07T20:04:58.049Z,20.70
2022-08-07T20:07:46.170Z,20.60
2022-08-07T20:10:36.940Z,20.60
2022-08-07T20:13:23.026Z,20.60
2022-08-07T20:15:57.573Z,20.50
2022-08-07T20:18:32.826Z,20.30
2022-08-07T20:21:21.023Z,20.10
2022-08-07T20:24:00.362Z,20.20
2022-08-07T20:26:45.174Z,20.30
2022-08-07T20:29:48.907Z,20.30
2022-08-07T20:32:11.585Z,20.30
2022-08-07T20:34:58.727Z,20.00
2022-08-07T20:37:46.791Z,19.90
2022-08-07T20:40:33.306Z,19.70
2022-08-07T20:43:03.158Z,19.60
2022-08-07T20:46:28.095Z,19.50
2022-08-07T20:48:30.259Z,19.50
2022-08-07T20:51:00.745Z,19.50
2022-08-07T20:54:02.159Z,19.60
2022-08-07T20:56:26.038Z,19.70
2022-08-07T20:58:58.598Z,19.80
2022-08-07T21:01:36.326Z,19.90
2022-08-07T21:04:22.779Z,20.00
2022-08-07T21:06:55.326Z,20.10
2022-08-07T21:09:51.771Z,20.10
2022-08-07T21:12:29.183Z,20.10
2022-08-07T21:15:02.938Z,20.20
2022-08-07T21:18:02.675Z,20.30
2022-08-07T21:20:29.466Z,20.30
2022-08-07T21:23:08.121Z,20.20
2022-08-07T21:25:56.152Z,20.10
2022-08-07T21:28:48.498Z,20.00
2022-08-07T21:32:43.063Z,19.90
2022-08-07T21:34:55.363Z,19.90
2022-08-07T21:37:57.981Z,19.60
2022-08-07T21:40:49.715Z,19.60
2022-08-07T21:43:56.050Z,19.60
2022-08-07T21:46:39.883Z,19.60
2022-08-07T21:50:01.048Z,19.60
2022-08-07T21:52:51.509Z,19.60
2022-08-07T21:55:29.916Z,19.60
2022-08-07T21:58:32.151Z,19.60
2022-08-07T22:01:08.463Z,19.60
2022-08-07T22:03:51.930Z,19.60
2022-08-07T22:06:31.466Z,19.60
2022-08-07T22:09:07.163Z,19.50
2022-08-07T22:11:52.970Z,19.50
2022-08-07T22:14:36.193Z,19.50
2022-08-07T22:17:07.362Z,19.50
2022-08-07T22:20:07.370Z,19.50
2022-08-07T22:22:45.717Z,19.50
2022-08-07T22:25:26.530Z,19.40
2022-08-07T22:28:31.216Z,19.40
2022-08-07T22:31:12.953Z,19.50
2022-08-07T22:34:06.000Z,19.40
2022-08-07T22:36:52.512Z,19.40
2022-08-07T22:39:52.781Z,19.30
2022-08-07T22:42:29.306Z,19.30
2022-08-07T22:45:02.427Z,19.30
2022-08-07T22:48:01.074Z,19.30
2022-08-07T22:50:44.246Z,19.30
2022-08-07T22:54:05.714Z,19.30
2022-08-07T22:56:57.774Z,19.40
2022-08-07T22:59:39.050Z,19.30
2022-08-07T23:02:27.603Z,19.30
2022-08-07T23:06:09.905Z,19.20
2022-08-07T23:08:46.159Z,19.20
2022-08-07T23:11:16.608Z,19.20
2022-08-07T23:14:10.760Z,19.10
2022-08-07T23:16:54.799Z,19.10
2022-08-07T23:20:18.440Z,19.10
2022-08-07T23:22:48.660Z,19.00
2022-08-07T23:25:39.543Z,19.00
2022-08-07T23:28:29.135Z,19.00
2022-08-07T23:31:42.856Z,19.00
2022-08-07T23:34:36.602Z,19.00
2022-08-07T23:38:01.241Z,19.00
2022-08-07T23:40:42.395Z,19.00
2022-08-07T23:43:51.438Z,18.90
2022-08-07T23:46:38.408Z,18.90
2022-08-07T23:49:18.632Z,18.80
2022-08-07T23:52:59.747Z,18.80
2022-08-07T23:54:52.984Z,18.80
2022-08-07T23:57:35.220Z,18.70
